Time;durP1;ratioP1;P1;durP2;ratioP2;P2;SDS_P1;SDS_P2;PMS_P1;PMS_P2;Temp;Humidity;BMP_temperature;BMP_pressure;BME280_temperature;BME280_humidity;BME280_pressure;Samples;Min_cycle;Max_cycle;Signal;HPM_P1;HPM_P2
2023/08/28 00:00:10;;;;;;;0.10;0.10;;;14.20;99.90;;;;;;5028584;28;20059;-81
2023/08/28 00:02:36;;;;;;;0.13;0.13;;;14.20;99.90;;;;;;5027973;28;20139;-81
2023/08/28 00:05:02;;;;;;;0.10;0.10;;;14.20;99.90;;;;;;5029581;28;20553;-80
2023/08/28 00:07:28;;;;;;;0.10;0.10;;;14.20;99.90;;;;;;5026447;28;20094;-81
2023/08/28 00:09:54;;;;;;;0.20;0.20;;;14.20;99.90;;;;;;5039773;28;20621;-80
2023/08/28 00:12:19;;;;;;;0.10;0.10;;;14.20;99.90;;;;;;5022498;28;20037;-80
2023/08/28 00:14:45;;;;;;;0.10;0.10;;;14.20;99.90;;;;;;5024703;28;20040;-80
2023/08/28 00:17:10;;;;;;;0.10;0.10;;;14.20;99.90;;;;;;5028768;28;20094;-80
2023/08/28 00:19:36;;;;;;;0.10;0.10;;;14.20;99.90;;;;;;5030908;28;20041;-80
2023/08/28 00:22:02;;;;;;;0.20;0.20;;;14.10;99.90;;;;;;5032253;28;20037;-80
2023/08/28 00:24:28;;;;;;;0.10;0.10;;;14.10;99.90;;;;;;5031703;28;20037;-80
2023/08/28 00:26:54;;;;;;;0.10;0.10;;;14.10;99.90;;;;;;5025267;28;20150;-80
2023/08/28 00:29:19;;;;;;;0.20;0.20;;;14.10;99.90;;;;;;5029862;28;20476;-79
2023/08/28 00:31:45;;;;;;;0.10;0.10;;;14.10;99.90;;;;;;5023880;28;20040;-80
2023/08/28 00:34:10;;;;;;;0.20;0.20;;;14.10;99.90;;;;;;5047721;28;20076;-80
2023/08/28 00:36:36;;;;;;;0.10;0.10;;;14.00;99.90;;;;;;5026830;28;20041;-81
2023/08/28 00:39:02;;;;;;;0.20;0.20;;;14.10;99.90;;;;;;5026625;28;20044;-80
2023/08/28 00:41:28;;;;;;;0.10;0.10;;;14.00;99.90;;;;;;5026858;28;20049;-80
2023/08/28 00:43:53;;;;;;;0.20;0.20;;;14.00;99.90;;;;;;5028003;28;20052;-80
2023/08/28 00:46:19;;;;;;;0.10;0.10;;;14.00;99.90;;;;;;5027291;28;20069;-80
2023/08/28 00:48:45;;;;;;;0.20;0.20;;;14.00;99.90;;;;;;5046339;28;20495;-80
2023/08/28 00:51:11;;;;;;;0.20;0.20;;;14.00;99.90;;;;;;5025988;28;20050;-80
2023/08/28 00:53:37;;;;;;;0.10;0.10;;;14.00;99.90;;;;;;5027276;28;20048;-80
2023/08/28 00:56:03;;;;;;;0.10;0.10;;;13.90;99.90;;;;;;5044227;28;20056;-80
2023/08/28 00:58:28;;;;;;;0.10;0.10;;;13.90;99.90;;;;;;5025886;28;20056;-80
2023/08/28 01:00:54;;;;;;;0.17;0.17;;;13.90;99.90;;;;;;5028770;28;20067;-80
2023/08/28 01:03:20;;;;;;;0.10;0.10;;;14.00;99.90;;;;;;5030205;28;20048;-80
2023/08/28 01:06:03;;;;;;;0.10;0.10;;;14.00;99.90;;;;;;5030145;28;20090;-80
2023/08/28 01:08:47;;;;;;;0.10;0.10;;;13.90;99.90;;;;;;5025440;28;20098;-81
2023/08/28 01:11:35;;;;;;;0.20;0.20;;;14.00;99.90;;;;;;5033200;28;20057;-80
2023/08/28 01:14:15;;;;;;;0.10;0.10;;;13.90;99.90;;;;;;5047510;28;20101;-80
2023/08/28 01:16:43;;;;;;;0.10;0.10;;;13.90;99.90;;;;;;5046615;28;20467;-80
2023/08/28 01:19:29;;;;;;;0.10;0.10;;;13.90;99.90;;;;;;5026084;28;20037;-80
2023/08/28 01:22:32;;;;;;;0.10;0.10;;;13.90;99.90;;;;;;5029134;28;20052;-80
2023/08/28 01:25:17;;;;;;;0.10;0.10;;;13.90;99.90;;;;;;5015005;28;20129;-80
2023/08/28 01:27:43;;;;;;;0.10;0.10;;;13.90;99.90;;;;;;5044519;28;20103;-80
2023/08/28 01:30:10;;;;;;;0.10;0.10;;;13.90;99.90;;;;;;5024904;28;20065;-80
2023/08/28 01:32:36;;;;;;;0.10;0.10;;;13.90;99.90;;;;;;5026114;28;20048;-80
2023/08/28 01:35:07;;;;;;;0.17;0.17;;;13.90;99.90;;;;;;5030155;28;20064;-79
2023/08/28 01:37:44;;;;;;;0.10;0.10;;;13.90;99.90;;;;;;5026569;28;20105;-80
2023/08/28 01:40:14;;;;;;;0.10;0.10;;;13.90;99.90;;;;;;5028670;28;20048;-80
2023/08/28 01:42:40;;;;;;;0.20;0.20;;;13.90;99.90;;;;;;5043282;28;20064;-80
2023/08/28 01:45:07;;;;;;;0.10;0.10;;;13.90;99.90;;;;;;5026822;28;20048;-80
2023/08/28 01:47:33;;;;;;;0.10;0.10;;;13.90;99.90;;;;;;5026121;28;20057;-80
2023/08/28 01:49:59;;;;;;;0.10;0.10;;;14.00;99.90;;;;;;5030765;28;20041;-80
2023/08/28 01:52:25;;;;;;;0.10;0.10;;;13.90;99.90;;;;;;5025814;28;20045;-80
2023/08/28 01:54:50;;;;;;;0.10;0.10;;;13.90;99.90;;;;;;5030569;28;20048;-79
2023/08/28 01:57:16;;;;;;;0.10;0.10;;;13.90;99.90;;;;;;5047707;28;20043;-80
2023/08/28 01:59:42;;;;;;;0.10;0.10;;;13.90;99.90;;;;;;5029675;28;20033;-80
2023/08/28 02:02:07;;;;;;;0.10;0.10;;;13.90;99.90;;;;;;5043634;28;20179;-80
2023/08/28 02:04:33;;;;;;;0.10;0.10;;;13.90;99.90;;;;;;5044923;28;20047;-80
2023/08/28 02:06:59;;;;;;;0.10;0.10;;;13.90;99.90;;;;;;5028757;28;20037;-80
2023/08/28 02:09:24;;;;;;;0.10;0.10;;;13.90;99.90;;;;;;5030202;28;20475;-80
2023/08/28 02:11:50;;;;;;;0.17;0.17;;;13.80;99.90;;;;;;5029624;28;20041;-80
2023/08/28 02:14:16;;;;;;;0.10;0.10;;;13.80;99.90;;;;;;5026831;28;20127;-80
2023/08/28 02:16:42;;;;;;;0.17;0.17;;;13.80;99.90;;;;;;5029290;28;20053;-80
2023/08/28 02:19:07;;;;;;;0.13;0.13;;;13.80;99.90;;;;;;5047546;28;20642;-80
2023/08/28 02:21:34;;;;;;;0.10;0.10;;;13.80;99.90;;;;;;5047730;28;20218;-80
2023/08/28 02:24:00;;;;;;;0.20;0.20;;;13.80;99.90;;;;;;5029307;28;20111;-80
2023/08/28 02:26:25;;;;;;;0.20;0.20;;;13.80;99.90;;;;;;5028920;28;20119;-80
2023/08/28 02:28:51;;;;;;;0.10;0.10;;;13.80;99.90;;;;;;5043756;28;20045;-81
2023/08/28 02:31:17;;;;;;;0.10;0.10;;;13.80;99.90;;;;;;5037989;28;20040;-79
2023/08/28 02:33:44;;;;;;;0.10;0.10;;;13.80;99.90;;;;;;5019843;28;20041;-80
2023/08/28 02:36:09;;;;;;;0.20;0.20;;;13.80;99.90;;;;;;5025921;28;20496;-79
2023/08/28 02:38:35;;;;;;;0.10;0.10;;;13.80;99.90;;;;;;5040720;28;20025;-80
2023/08/28 02:41:06;;;;;;;0.10;0.10;;;13.80;99.90;;;;;;5027097;28;20570;-80
2023/08/28 02:43:32;;;;;;;0.10;0.10;;;13.80;99.90;;;;;;5047686;28;20044;-80
2023/08/28 02:45:58;;;;;;;0.20;0.20;;;13.80;99.90;;;;;;5024344;28;20040;-80
2023/08/28 02:48:23;;;;;;;0.10;0.10;;;13.80;99.90;;;;;;5024399;28;20573;-79
2023/08/28 02:50:49;;;;;;;0.10;0.10;;;13.80;99.90;;;;;;5026975;28;20094;-80
2023/08/28 02:53:15;;;;;;;0.20;0.20;;;13.80;99.90;;;;;;5044628;28;20124;-80
2023/08/28 02:55:42;;;;;;;0.20;0.20;;;13.80;99.90;;;;;;5028063;28;20044;-80
2023/08/28 02:58:08;;;;;;;0.20;0.20;;;13.80;99.90;;;;;;5027689;28;20059;-80
2023/08/28 03:00:41;;;;;;;0.10;0.10;;;13.80;99.90;;;;;;5025611;28;20045;-80
2023/08/28 03:03:08;;;;;;;0.10;0.10;;;13.80;99.90;;;;;;5024087;28;20057;-80
2023/08/28 03:05:33;;;;;;;0.10;0.10;;;13.80;99.90;;;;;;5022099;28;20600;-78
2023/08/28 03:07:59;;;;;;;0.10;0.10;;;13.80;99.90;;;;;;5046796;28;20049;-79
2023/08/28 03:10:25;;;;;;;0.10;0.10;;;13.80;99.90;;;;;;5029146;28;20500;-80
2023/08/28 03:12:50;;;;;;;0.10;0.10;;;13.80;99.90;;;;;;5029035;28;20057;-80
2023/08/28 03:15:16;;;;;;;0.10;0.10;;;13.80;99.90;;;;;;5039719;28;20484;-80
2023/08/28 03:17:42;;;;;;;0.10;0.10;;;13.80;99.90;;;;;;5020127;28;20048;-80
2023/08/28 03:20:09;;;;;;;0.10;0.10;;;13.70;99.90;;;;;;5046551;28;20041;-80
2023/08/28 03:22:35;;;;;;;0.10;0.10;;;13.70;99.90;;;;;;5026681;28;20068;-79
2023/08/28 03:25:01;;;;;;;0.10;0.10;;;13.70;99.90;;;;;;5028677;28;20069;-79
2023/08/28 03:27:27;;;;;;;0.10;0.10;;;13.70;99.90;;;;;;5023911;28;20128;-80
2023/08/28 03:29:52;;;;;;;0.10;0.10;;;13.70;99.90;;;;;;5023430;28;20048;-80
2023/08/28 03:32:18;;;;;;;0.10;0.10;;;13.70;99.90;;;;;;5028519;28;20118;-79
2023/08/28 03:34:44;;;;;;;0.10;0.10;;;13.70;99.90;;;;;;5028576;28;20487;-80
2023/08/28 03:37:09;;;;;;;0.10;0.10;;;13.70;99.90;;;;;;5044368;28;20804;-79
2023/08/28 03:39:35;;;;;;;0.20;0.20;;;13.70;99.90;;;;;;5049016;28;20044;-79
2023/08/28 03:42:01;;;;;;;0.10;0.10;;;13.70;99.90;;;;;;5025344;28;20537;-80
2023/08/28 03:44:26;;;;;;;0.10;0.10;;;13.70;99.90;;;;;;5025911;28;20037;-80
2023/08/28 03:46:52;;;;;;;0.10;0.10;;;13.60;99.90;;;;;;5022868;28;20043;-79
2023/08/28 03:49:18;;;;;;;0.10;0.10;;;13.70;99.90;;;;;;5046805;28;20079;-80
2023/08/28 03:51:44;;;;;;;0.10;0.10;;;13.70;99.90;;;;;;5049551;28;20683;-80
2023/08/28 03:54:13;;;;;;;0.10;0.10;;;13.70;99.90;;;;;;5029602;28;20033;-80
2023/08/28 03:56:39;;;;;;;0.10;0.10;;;13.70;99.90;;;;;;5031184;28;20077;-80
2023/08/28 03:59:06;;;;;;;0.10;0.10;;;13.60;99.90;;;;;;5028154;28;20130;-79
2023/08/28 04:01:31;;;;;;;0.10;0.10;;;13.90;99.90;;;;;;5028023;28;20119;-79
2023/08/28 04:03:57;;;;;;;0.10;0.10;;;13.60;99.90;;;;;;5046064;28;20056;-79
2023/08/28 04:06:22;;;;;;;0.10;0.10;;;13.60;99.90;;;;;;5031119;28;20059;-79
2023/08/28 04:08:48;;;;;;;0.10;0.10;;;13.60;99.90;;;;;;5032313;28;20174;-79
2023/08/28 04:11:14;;;;;;;0.10;0.10;;;13.60;99.90;;;;;;5048135;28;20048;-79
2023/08/28 04:13:41;;;;;;;0.10;0.10;;;13.50;99.90;;;;;;5040482;28;20041;-79
2023/08/28 04:16:07;;;;;;;0.10;0.10;;;13.50;99.90;;;;;;5029376;28;20562;-80
2023/08/28 04:18:32;;;;;;;0.20;0.20;;;13.40;99.90;;;;;;5031878;28;20128;-79
2023/08/28 04:20:58;;;;;;;0.10;0.10;;;13.40;99.90;;;;;;5031291;28;20041;-79
2023/08/28 04:23:24;;;;;;;0.10;0.10;;;13.40;99.90;;;;;;5030101;28;20183;-78
2023/08/28 04:25:49;;;;;;;0.10;0.10;;;13.30;99.90;;;;;;5050227;28;20048;-79
2023/08/28 04:28:16;;;;;;;0.10;0.10;;;13.30;99.90;;;;;;5048250;28;20047;-79
2023/08/28 04:30:42;;;;;;;0.10;0.10;;;13.30;99.90;;;;;;5032456;28;20044;-78
2023/08/28 04:33:07;;;;;;;0.10;0.10;;;13.30;99.90;;;;;;5031213;28;20036;-79
2023/08/28 04:35:33;;;;;;;0.10;0.10;;;13.30;99.90;;;;;;5030545;28;20044;-79
2023/08/28 04:37:59;;;;;;;0.10;0.10;;;13.30;99.90;;;;;;5048544;28;20047;-79
2023/08/28 04:40:25;;;;;;;0.10;0.10;;;13.30;99.90;;;;;;5030760;28;20049;-79
2023/08/28 04:42:50;;;;;;;0.10;0.10;;;13.30;99.90;;;;;;5048158;28;20064;-79
2023/08/28 04:45:16;;;;;;;0.10;0.10;;;13.30;99.90;;;;;;5031689;28;20124;-79
2023/08/28 04:47:41;;;;;;;0.13;0.13;;;13.30;99.90;;;;;;5028485;28;20075;-79
2023/08/28 04:50:07;;;;;;;0.10;0.10;;;13.30;99.90;;;;;;5032787;28;20045;-79
2023/08/28 04:52:33;;;;;;;0.10;0.10;;;13.30;99.90;;;;;;5029404;28;20045;-80
2023/08/28 04:54:59;;;;;;;0.10;0.10;;;13.30;99.90;;;;;;5030987;28;20037;-80
2023/08/28 04:57:24;;;;;;;0.10;0.10;;;13.30;99.90;;;;;;5045340;28;20211;-80
2023/08/28 04:59:50;;;;;;;0.10;0.10;;;13.30;99.90;;;;;;5030885;28;20134;-79
2023/08/28 05:02:16;;;;;;;0.10;0.10;;;13.30;99.90;;;;;;5026126;28;20341;-79
2023/08/28 05:04:41;;;;;;;0.10;0.10;;;13.30;99.90;;;;;;5029907;28;20728;-80
2023/08/28 05:07:07;;;;;;;0.10;0.10;;;13.30;99.90;;;;;;5030855;28;20044;-80
2023/08/28 05:09:33;;;;;;;0.10;0.10;;;13.30;99.90;;;;;;5027232;28;20051;-79
2023/08/28 05:11:59;;;;;;;0.20;0.20;;;13.30;99.90;;;;;;5023165;28;20079;-79
2023/08/28 05:14:25;;;;;;;0.10;0.10;;;13.30;99.90;;;;;;5027898;28;20060;-79
2023/08/28 05:16:50;;;;;;;0.10;0.10;;;13.40;99.90;;;;;;5044787;28;20104;-79
2023/08/28 05:19:16;;;;;;;0.20;0.20;;;13.40;99.90;;;;;;5033106;28;20516;-80
2023/08/28 05:21:41;;;;;;;0.10;0.10;;;13.40;99.90;;;;;;5028078;28;20049;-79
2023/08/28 05:24:07;;;;;;;0.10;0.10;;;13.40;99.90;;;;;;5026630;28;20041;-80
2023/08/28 05:26:33;;;;;;;0.13;0.13;;;13.40;99.90;;;;;;5028278;28;20037;-80
2023/08/28 05:28:58;;;;;;;0.10;0.10;;;13.40;99.90;;;;;;5027836;28;20131;-79
2023/08/28 05:31:24;;;;;;;0.20;0.20;;;13.40;99.90;;;;;;5025974;28;20504;-80
2023/08/28 05:33:50;;;;;;;0.10;0.10;;;13.40;99.90;;;;;;5047269;28;20056;-79
2023/08/28 05:36:15;;;;;;;0.10;0.10;;;13.50;99.90;;;;;;5029154;28;20041;-80
2023/08/28 05:38:41;;;;;;;0.13;0.13;;;13.50;99.90;;;;;;5029125;28;20079;-80
2023/08/28 05:41:07;;;;;;;0.10;0.10;;;13.50;99.90;;;;;;5028330;28;20047;-79
2023/08/28 05:43:32;;;;;;;0.10;0.10;;;13.60;99.90;;;;;;5029647;28;20044;-79
2023/08/28 05:45:58;;;;;;;0.10;0.10;;;13.60;99.90;;;;;;5044837;28;20037;-80
2023/08/28 05:48:24;;;;;;;0.10;0.10;;;13.60;99.90;;;;;;5047239;28;20134;-80
2023/08/28 05:50:50;;;;;;;0.10;0.10;;;13.60;99.90;;;;;;5030107;28;20032;-79
2023/08/28 05:53:16;;;;;;;0.10;0.10;;;13.70;99.90;;;;;;5030731;28;20451;-79
2023/08/28 05:55:41;;;;;;;0.20;0.20;;;13.80;99.90;;;;;;5029532;28;20038;-79
2023/08/28 05:58:07;;;;;;;0.20;0.20;;;13.70;99.90;;;;;;5022493;28;20374;-80
2023/08/28 06:00:33;;;;;;;0.20;0.20;;;13.80;99.90;;;;;;5048383;28;20028;-79
2023/08/28 06:02:58;;;;;;;0.10;0.10;;;13.80;99.90;;;;;;5043293;28;20040;-79
2023/08/28 06:05:24;;;;;;;0.20;0.20;;;13.90;99.90;;;;;;5023217;28;20057;-79
2023/08/28 06:07:50;;;;;;;0.13;0.13;;;13.90;99.90;;;;;;5025782;28;20044;-80
2023/08/28 06:10:19;;;;;;;0.10;0.10;;;14.00;99.90;;;;;;5028868;28;20522;-80
2023/08/28 06:12:46;;;;;;;0.20;0.20;;;14.00;99.90;;;;;;5018080;28;20052;-79
2023/08/28 06:15:19;;;;;;;0.20;0.20;;;14.00;99.90;;;;;;5048779;28;20044;-80
2023/08/28 06:17:45;;;;;;;0.20;0.20;;;14.10;99.90;;;;;;5027155;28;20076;-79
2023/08/28 06:20:11;;;;;;;0.10;0.10;;;14.10;99.90;;;;;;5028336;28;20056;-80
2023/08/28 06:22:38;;;;;;;0.10;0.10;;;14.10;99.90;;;;;;5023796;28;20037;-81
2023/08/28 06:25:04;;;;;;;0.10;0.10;;;14.20;99.90;;;;;;5030743;28;20064;-80
2023/08/28 06:27:30;;;;;;;0.10;0.10;;;14.20;99.90;;;;;;5029026;28;20048;-81
2023/08/28 06:29:56;;;;;;;0.10;0.10;;;14.30;99.90;;;;;;5029850;28;20037;-81
2023/08/28 06:32:22;;;;;;;0.10;0.10;;;14.30;99.90;;;;;;5026445;28;20396;-81
2023/08/28 06:34:47;;;;;;;0.10;0.10;;;14.40;99.90;;;;;;5046843;28;20041;-81
2023/08/28 06:37:13;;;;;;;0.20;0.20;;;14.40;99.90;;;;;;5027122;28;20075;-81
2023/08/28 06:39:39;;;;;;;0.10;0.10;;;14.40;99.90;;;;;;5022228;28;20064;-81
2023/08/28 06:42:04;;;;;;;0.10;0.10;;;14.50;99.90;;;;;;5029091;28;20665;-81
2023/08/28 06:44:30;;;;;;;0.10;0.10;;;14.50;99.90;;;;;;5023772;28;20128;-79
2023/08/28 06:46:56;;;;;;;0.20;0.20;;;14.50;99.90;;;;;;5028844;28;20047;-79
2023/08/28 06:49:21;;;;;;;0.10;0.10;;;14.60;99.90;;;;;;5030791;28;20083;-79
2023/08/28 06:51:47;;;;;;;0.10;0.10;;;14.70;99.90;;;;;;5047068;28;20649;-79
2023/08/28 06:54:13;;;;;;;0.10;0.10;;;14.70;99.90;;;;;;5026719;28;20044;-80
2023/08/28 06:56:38;;;;;;;0.20;0.20;;;14.80;99.90;;;;;;5045632;28;20623;-79
2023/08/28 06:59:04;;;;;;;0.10;0.10;;;14.80;99.90;;;;;;5030937;28;20076;-80
2023/08/28 07:01:30;;;;;;;0.10;0.10;;;14.90;99.90;;;;;;5026652;28;20130;-80
2023/08/28 07:03:55;;;;;;;0.10;0.10;;;14.90;99.90;;;;;;5027016;28;20092;-81
2023/08/28 07:06:21;;;;;;;0.10;0.10;;;14.90;99.90;;;;;;5044653;28;20053;-80
2023/08/28 07:08:47;;;;;;;0.10;0.10;;;15.00;99.90;;;;;;5047538;28;20077;-81
2023/08/28 07:11:12;;;;;;;0.10;0.10;;;15.10;99.90;;;;;;5026592;28;20072;-80
2023/08/28 07:13:38;;;;;;;0.20;0.20;;;15.10;99.90;;;;;;5028828;28;20128;-79
2023/08/28 07:16:03;;;;;;;0.10;0.10;;;15.10;99.90;;;;;;5029493;28;20040;-80
2023/08/28 07:18:30;;;;;;;0.10;0.10;;;15.20;99.90;;;;;;5030222;28;20044;-81
2023/08/28 07:20:55;;;;;;;0.10;0.10;;;15.30;99.90;;;;;;5048170;28;20057;-80
2023/08/28 07:23:24;;;;;;;0.10;0.10;;;15.30;99.90;;;;;;5045061;28;20130;-80
2023/08/28 07:25:50;;;;;;;0.10;0.10;;;15.30;99.90;;;;;;5035572;28;20057;-79
2023/08/28 07:28:16;;;;;;;0.20;0.20;;;15.40;99.90;;;;;;5029214;28;20139;-80
2023/08/28 07:30:42;;;;;;;0.10;0.10;;;15.50;99.90;;;;;;5039084;28;20061;-80
2023/08/28 07:33:08;;;;;;;0.10;0.10;;;15.50;99.90;;;;;;5029858;28;20052;-80
2023/08/28 07:35:35;;;;;;;0.10;0.10;;;15.50;99.90;;;;;;5025511;28;20075;-80
2023/08/28 07:38:07;;;;;;;0.10;0.10;;;15.60;99.90;;;;;;5027873;28;20044;-81
2023/08/28 07:40:34;;;;;;;0.20;0.20;;;15.60;99.90;;;;;;5024540;28;20047;-80
2023/08/28 07:43:01;;;;;;;0.10;0.10;;;15.80;99.90;;;;;;5045293;28;20338;-80
2023/08/28 07:45:26;;;;;;;0.20;0.20;;;15.80;99.90;;;;;;5026921;28;20045;-80
2023/08/28 07:47:52;;;;;;;0.10;0.10;;;15.90;99.90;;;;;;5043195;28;20115;-80
2023/08/28 07:50:18;;;;;;;0.10;0.10;;;16.00;99.90;;;;;;5023085;28;20407;-80
2023/08/28 07:52:43;;;;;;;0.20;0.20;;;16.10;99.90;;;;;;5024966;28;20040;-80
2023/08/28 07:55:09;;;;;;;0.10;0.10;;;16.20;99.90;;;;;;5027079;28;20045;-80
2023/08/28 07:57:35;;;;;;;0.20;0.20;;;16.20;99.90;;;;;;5044125;28;20045;-79
2023/08/28 08:00:06;;;;;;;0.10;0.10;;;16.20;99.90;;;;;;5027288;28;20047;-80
2023/08/28 08:02:32;;;;;;;0.15;0.15;;;16.30;99.90;;;;;;5047474;28;20044;-79
2023/08/28 08:04:58;;;;;;;0.10;0.10;;;16.30;99.90;;;;;;5043587;28;20049;-78
2023/08/28 08:07:24;;;;;;;0.13;0.13;;;16.40;99.90;;;;;;5037668;28;20041;-79
2023/08/28 08:09:50;;;;;;;0.10;0.10;;;16.40;99.90;;;;;;5024513;28;20041;-79
2023/08/28 08:12:16;;;;;;;0.10;0.10;;;16.40;99.90;;;;;;5025364;28;20045;-79
2023/08/28 08:14:41;;;;;;;0.10;0.10;;;16.50;99.90;;;;;;5029796;28;20136;-79
2023/08/28 08:17:07;;;;;;;0.20;0.20;;;16.50;99.90;;;;;;5028048;28;20079;-78
2023/08/28 08:19:33;;;;;;;0.10;0.10;;;16.60;99.90;;;;;;5027778;28;20361;-79
2023/08/28 08:21:59;;;;;;;0.20;0.20;;;16.70;99.90;;;;;;5046969;28;20041;-79
2023/08/28 08:24:24;;;;;;;0.10;0.10;;;16.70;99.90;;;;;;5046373;28;20399;-79
2023/08/28 08:26:50;;;;;;;0.10;0.10;;;16.80;99.90;;;;;;5028266;28;20604;-79
2023/08/28 08:29:16;;;;;;;0.10;0.10;;;16.80;99.90;;;;;;5028531;28;20048;-78
2023/08/28 08:31:41;;;;;;;0.10;0.10;;;16.90;99.90;;;;;;5022704;28;20040;-78
2023/08/28 08:34:07;;;;;;;0.20;0.20;;;17.00;99.90;;;;;;5046878;28;20033;-78
2023/08/28 08:36:33;;;;;;;0.20;0.20;;;17.20;99.90;;;;;;5027059;28;20041;-78
2023/08/28 08:38:59;;;;;;;0.20;0.20;;;17.20;99.90;;;;;;5041622;28;20056;-77
2023/08/28 08:41:25;;;;;;;0.15;0.15;;;17.30;99.90;;;;;;5043442;28;20037;-78
2023/08/28 08:43:50;;;;;;;0.10;0.10;;;17.30;99.90;;;;;;5027318;28;20380;-77
2023/08/28 08:46:19;;;;;;;0.20;0.20;;;17.30;99.90;;;;;;5046720;28;20264;-77
2023/08/28 08:48:45;;;;;;;0.20;0.20;;;17.30;99.90;;;;;;5049522;28;20065;-77
2023/08/28 08:51:16;;;;;;;0.20;0.20;;;17.30;99.90;;;;;;5027902;28;20076;-78
2023/08/28 08:54:26;;;;;;;0.20;0.20;;;17.40;99.90;;;;;;5045341;28;20052;-84
2023/08/28 08:57:00;;;;;;;0.20;0.20;;;17.40;99.90;;;;;;5015041;28;20041;-78
2023/08/28 08:59:26;;;;;;;0.20;0.20;;;17.50;99.90;;;;;;5042198;28;20044;-79
2023/08/28 09:01:53;;;;;;;0.13;0.13;;;17.50;99.90;;;;;;5026882;28;20067;-79
2023/08/28 09:04:19;;;;;;;0.10;0.10;;;17.60;99.90;;;;;;5049922;28;20140;-79
2023/08/28 09:06:47;;;;;;;0.20;0.20;;;17.70;99.90;;;;;;5050877;28;20202;-79
2023/08/28 09:09:15;;;;;;;0.20;0.20;;;17.70;99.90;;;;;;5030493;28;20056;-79
2023/08/28 09:11:45;;;;;;;0.20;0.20;;;17.70;99.90;;;;;;5032724;28;20052;-79
2023/08/28 09:14:11;;;;;;;0.15;0.15;;;17.80;99.90;;;;;;5022891;28;20085;-79
2023/08/28 09:16:36;;;;;;;0.10;0.10;;;17.80;99.90;;;;;;5032693;28;20052;-79
2023/08/28 09:19:02;;;;;;;0.10;0.10;;;17.80;99.90;;;;;;5032061;28;20041;-79
2023/08/28 09:21:35;;;;;;;0.20;0.20;;;17.90;99.90;;;;;;5024861;28;20040;-79
2023/08/28 09:24:01;;;;;;;0.20;0.20;;;17.90;99.90;;;;;;5032302;28;20090;-78
2023/08/28 09:26:27;;;;;;;0.10;0.10;;;17.90;99.90;;;;;;5031281;28;20441;-79
2023/08/28 09:29:07;;;;;;;0.20;0.20;;;17.90;99.90;;;;;;5029829;28;20048;-79
2023/08/28 09:31:33;;;;;;;0.20;0.20;;;17.90;99.90;;;;;;5049557;28;20045;-78
2023/08/28 09:34:00;;;;;;;0.20;0.20;;;18.00;99.90;;;;;;5050550;28;20084;-79
2023/08/28 09:36:28;;;;;;;0.20;0.20;;;18.10;99.90;;;;;;5048374;28;20336;-78
2023/08/28 09:39:06;;;;;;;0.20;0.20;;;18.20;99.90;;;;;;5030880;28;20501;-78
2023/08/28 09:41:50;;;;;;;0.20;0.20;;;18.30;99.90;;;;;;5047907;28;20033;-78
2023/08/28 09:44:17;;;;;;;0.20;0.20;;;18.20;99.90;;;;;;5029821;28;20049;-79
2023/08/28 09:46:44;;;;;;;0.20;0.20;;;18.40;99.90;;;;;;5028191;28;20124;-79
2023/08/28 09:49:11;;;;;;;0.10;0.10;;;18.40;99.90;;;;;;5049374;28;20052;-78
2023/08/28 09:51:42;;;;;;;0.20;0.20;;;18.30;99.90;;;;;;5030863;28;20079;-78
2023/08/28 09:54:09;;;;;;;0.17;0.17;;;18.30;99.90;;;;;;5029978;28;20060;-78
2023/08/28 09:56:36;;;;;;;0.10;0.10;;;18.20;99.90;;;;;;5030124;28;20915;-78
2023/08/28 09:59:03;;;;;;;0.13;0.13;;;18.10;99.90;;;;;;5030714;28;20049;-77
2023/08/28 10:01:34;;;;;;;0.10;0.10;;;18.10;99.90;;;;;;5031402;28;20075;-78
2023/08/28 10:04:10;;;;;;;0.20;0.20;;;18.00;99.90;;;;;;5048841;28;20053;-78
2023/08/28 10:06:49;;;;;;;0.10;0.10;;;18.00;99.90;;;;;;5031156;28;20033;-78
2023/08/28 10:09:18;;;;;;;0.20;0.20;;;18.00;99.90;;;;;;5032217;28;20037;-78
2023/08/28 10:11:45;;;;;;;0.20;0.20;;;18.00;99.90;;;;;;5027862;28;20029;-79
2023/08/28 10:14:12;;;;;;;0.10;0.10;;;18.00;99.90;;;;;;5043895;28;20433;-78
2023/08/28 10:16:46;;;;;;;0.10;0.10;;;18.00;99.90;;;;;;5023076;28;20049;-78
2023/08/28 10:19:20;;;;;;;0.20;0.20;;;18.00;99.90;;;;;;5022504;28;20077;-78
2023/08/28 10:21:48;;;;;;;0.10;0.10;;;18.20;99.90;;;;;;5023649;28;20049;-79
2023/08/28 10:24:16;;;;;;;0.10;0.10;;;18.30;99.90;;;;;;5024186;28;20056;-79
2023/08/28 10:26:43;;;;;;;0.20;0.20;;;18.40;99.90;;;;;;5028752;28;20044;-78
2023/08/28 10:29:10;;;;;;;0.10;0.10;;;18.40;99.90;;;;;;5027839;28;20402;-79
2023/08/28 10:31:37;;;;;;;0.10;0.10;;;18.40;99.90;;;;;;5029610;28;20041;-79
2023/08/28 10:34:05;;;;;;;0.20;0.20;;;18.40;99.90;;;;;;5048451;28;20076;-78
2023/08/28 10:36:32;;;;;;;0.20;0.20;;;18.40;99.90;;;;;;5027789;28;20389;-78
2023/08/28 10:39:00;;;;;;;0.10;0.10;;;18.50;99.90;;;;;;5032686;28;20143;-79
2023/08/28 10:41:28;;;;;;;0.20;0.20;;;18.60;99.90;;;;;;5022562;28;20078;-78
2023/08/28 10:43:54;;;;;;;0.20;0.20;;;18.60;99.90;;;;;;5048192;28;20045;-78
2023/08/28 10:46:21;;;;;;;0.20;0.20;;;18.60;99.90;;;;;;5045973;28;20052;-78
2023/08/28 10:48:47;;;;;;;0.20;0.20;;;18.60;99.90;;;;;;5029363;28;20391;-79
2023/08/28 10:51:14;;;;;;;0.20;0.20;;;18.60;99.90;;;;;;5030206;28;20127;-79
2023/08/28 10:53:40;;;;;;;0.20;0.20;;;18.60;99.90;;;;;;5042251;28;20365;-79
2023/08/28 10:56:06;;;;;;;0.20;0.20;;;18.70;99.90;;;;;;5026341;28;20041;-78
2023/08/28 10:58:36;;;;;;;0.20;0.20;;;18.80;99.90;;;;;;5027148;28;20041;-78
2023/08/28 11:01:16;;;;;;;0.13;0.13;;;18.90;99.90;;;;;;5027442;28;20044;-78
2023/08/28 11:03:51;;;;;;;0.20;0.20;;;18.90;99.90;;;;;;5024412;28;20048;-79
2023/08/28 11:06:37;;;;;;;0.10;0.10;;;19.10;99.90;;;;;;5039619;28;20112;-78
2023/08/28 11:09:27;;;;;;;0.20;0.20;;;19.20;99.90;;;;;;5040677;28;20528;-78
2023/08/28 11:12:02;;;;;;;0.20;0.20;;;19.20;99.90;;;;;;5025417;28;20043;-78
2023/08/28 11:14:38;;;;;;;0.20;0.20;;;19.30;99.90;;;;;;5027363;28;20045;-78
2023/08/28 11:17:07;;;;;;;0.20;0.20;;;19.40;99.90;;;;;;5044958;28;20392;-79
2023/08/28 11:19:56;;;;;;;0.20;0.20;;;19.60;99.90;;;;;;5029623;28;20413;-79
2023/08/28 11:22:33;;;;;;;0.20;0.20;;;19.70;99.90;;;;;;5028446;28;20056;-77
2023/08/28 11:25:00;;;;;;;0.20;0.20;;;19.80;99.90;;;;;;5030264;28;20055;-80
2023/08/28 11:27:42;;;;;;;0.20;0.20;;;19.80;99.90;;;;;;5029203;28;20464;-76
2023/08/28 11:30:09;;;;;;;0.20;0.20;;;19.70;99.90;;;;;;5029478;28;20111;-79
2023/08/28 11:32:37;;;;;;;0.20;0.20;;;19.70;99.90;;;;;;5028769;28;20040;-79
2023/08/28 11:35:05;;;;;;;0.20;0.20;;;19.60;99.90;;;;;;5028832;28;20041;-79
2023/08/28 11:37:31;;;;;;;0.20;0.20;;;19.50;99.90;;;;;;5028214;28;20052;-79
2023/08/28 11:39:57;;;;;;;0.17;0.17;;;19.40;99.90;;;;;;5027965;28;20037;-79
2023/08/28 11:42:29;;;;;;;0.20;0.20;;;19.30;99.90;;;;;;5046497;28;20037;-79
2023/08/28 11:44:54;;;;;;;0.10;0.10;;;19.20;99.90;;;;;;5041184;28;20037;-79
2023/08/28 11:47:28;;;;;;;0.20;0.20;;;19.20;99.90;;;;;;5045432;28;20056;-79
2023/08/28 11:49:54;;;;;;;0.20;0.20;;;19.10;99.90;;;;;;5021603;28;20099;-79
2023/08/28 11:52:21;;;;;;;0.20;0.20;;;19.10;99.90;;;;;;5029733;28;20049;-79
2023/08/28 11:54:47;;;;;;;0.20;0.20;;;19.00;99.90;;;;;;5045817;28;20481;-79
2023/08/28 11:57:17;;;;;;;0.13;0.13;;;18.90;99.90;;;;;;5046763;28;20084;-79
2023/08/28 11:59:44;;;;;;;0.20;0.20;;;18.90;99.90;;;;;;5046060;28;20136;-78
2023/08/28 12:02:13;;;;;;;0.13;0.13;;;18.90;99.90;;;;;;5028732;28;20094;-79
2023/08/28 12:04:40;;;;;;;0.10;0.10;;;18.90;99.90;;;;;;5027587;28;20095;-78
2023/08/28 12:07:18;;;;;;;0.20;0.20;;;18.90;99.90;;;;;;5022022;28;20083;-79
2023/08/28 12:09:46;;;;;;;0.20;0.20;;;18.90;99.90;;;;;;5027650;28;20448;-79
2023/08/28 12:12:14;;;;;;;0.20;0.20;;;18.90;99.90;;;;;;5047899;28;20041;-79
2023/08/28 12:14:44;;;;;;;0.20;0.20;;;18.90;99.90;;;;;;5046944;28;20555;-79
2023/08/28 12:17:16;;;;;;;0.20;0.20;;;19.00;99.90;;;;;;5024923;28;20040;-79
2023/08/28 12:19:41;;;;;;;;;;;19.00;99.90;;;;;;5031569;28;20092;-79
2023/08/28 12:22:08;;;;;;;0.20;0.20;;;19.00;99.90;;;;;;5031443;28;19925;-78
2023/08/28 12:24:41;;;;;;;0.10;0.10;;;19.00;99.90;;;;;;5028094;28;20053;-79
2023/08/28 12:27:11;;;;;;;0.20;0.20;;;19.00;99.90;;;;;;5044781;28;20132;-79
2023/08/28 12:29:37;;;;;;;0.20;0.20;;;19.10;99.90;;;;;;5033487;28;20048;-79
2023/08/28 12:32:06;;;;;;;0.20;0.20;;;19.20;99.90;;;;;;5024923;28;20064;-78
2023/08/28 12:34:33;;;;;;;0.20;0.20;;;19.30;99.90;;;;;;5048474;28;20099;-79
2023/08/28 12:37:06;;;;;;;0.20;0.20;;;19.40;99.90;;;;;;5047325;28;20056;-85
2023/08/28 12:39:33;;;;;;;0.20;0.20;;;19.50;99.90;;;;;;5022178;28;20078;-78
2023/08/28 12:41:58;;;;;;;0.20;0.20;;;19.70;99.90;;;;;;5031773;28;20154;-76
2023/08/28 12:44:27;;;;;;;0.20;0.20;;;19.90;99.90;;;;;;5030203;28;20491;-78
2023/08/28 12:46:52;;;;;;;0.10;0.10;;;20.10;99.90;;;;;;5032656;28;20190;-77
2023/08/28 12:49:18;;;;;;;0.20;0.20;;;20.50;99.90;;;;;;5024088;28;20643;-77